Time;durP1;ratioP1;P1;durP2;ratioP2;P2;SDS_P1;SDS_P2;PMS_P1;PMS_P2;Temp;Humidity;BMP_temperature;BMP_pressure;BME280_temperature;BME280_humidity;BME280_pressure;Samples;Min_cycle;Max_cycle;Signal;HPM_P1;HPM_P2
2023/03/15 00:01:00;;;;;;;10.25;3.00;;;;;;;;;;5025005;28;20104;-74
2023/03/15 00:03:26;;;;;;;14.65;2.17;;;;;;;;;;5027074;28;20175;-74
2023/03/15 00:05:53;;;;;;;16.63;2.97;;;;;;;;;;5025746;28;20123;-74
2023/03/15 00:08:20;;;;;;;13.88;3.22;;;;;;;;;;5028818;28;20120;-75
2023/03/15 00:10:47;;;;;;;15.43;2.28;;;;;;;;;;5027980;28;20355;-75
2023/03/15 00:13:14;;;;;;;11.38;2.38;;;;;;;;;;5024615;28;20495;-74
2023/03/15 00:15:45;;;;;;;11.77;2.72;;;;;;;;;;5022752;28;20484;-74
2023/03/15 00:18:11;;;;;;;17.80;3.00;;;;;;;;;;5029201;28;20068;-74
2023/03/15 00:20:37;;;;;;;16.38;2.83;;;;;;;;;;5027528;28;20030;-74
2023/03/15 00:23:04;;;;;;;9.25;2.65;;;;;;;;;;5028831;28;20508;-74
2023/03/15 00:25:30;;;;;;;17.80;2.85;;;;;;;;;;5028927;28;20021;-74
2023/03/15 00:27:56;;;;;;;9.65;2.45;;;;;;;;;;5028867;28;20034;-74
2023/03/15 00:30:22;;;;;;;16.00;2.35;;;;;;;;;;5028927;28;20026;-74
2023/03/15 00:32:48;;;;;;;19.45;2.75;;;;;;;;;;5027400;28;20101;-74
2023/03/15 00:35:17;;;;;;;13.45;2.05;;;;;;;;;;5028748;28;20155;-74
2023/03/15 00:37:43;;;;;;;10.80;1.95;;;;;;;;;;5028661;28;20517;-74
2023/03/15 00:40:11;;;;;;;11.48;2.10;;;;;;;;;;5028285;28;20046;-75
2023/03/15 00:42:37;;;;;;;11.45;2.20;;;;;;;;;;5028583;28;20519;-74
2023/03/15 00:45:04;;;;;;;14.07;2.45;;;;;;;;;;5026981;28;20025;-74
2023/03/15 00:47:30;;;;;;;9.32;2.03;;;;;;;;;;5028692;28;20029;-75
2023/03/15 00:49:56;;;;;;;9.00;2.17;;;;;;;;;;5028407;28;20025;-75
2023/03/15 00:52:23;;;;;;;13.02;2.10;;;;;;;;;;5028768;28;20049;-75
2023/03/15 00:54:52;;;;;;;7.63;2.33;;;;;;;;;;5028371;28;20094;-74
2023/03/15 00:57:19;;;;;;;8.90;1.85;;;;;;;;;;5026583;28;20034;-74
2023/03/15 00:59:45;;;;;;;9.70;1.70;;;;;;;;;;5010680;28;20029;-74
2023/03/15 01:02:11;;;;;;;8.50;1.73;;;;;;;;;;5028023;28;20500;-75
2023/03/15 01:04:37;;;;;;;10.35;2.33;;;;;;;;;;5027241;28;20033;-75
2023/03/15 01:07:04;;;;;;;15.30;2.10;;;;;;;;;;5026448;28;20032;-74
2023/03/15 01:09:30;;;;;;;13.20;2.28;;;;;;;;;;5027972;28;20104;-73
2023/03/15 01:11:57;;;;;;;11.82;2.00;;;;;;;;;;5028007;28;20521;-73
2023/03/15 01:14:24;;;;;;;10.90;2.30;;;;;;;;;;5024537;28;20032;-74
2023/03/15 01:16:50;;;;;;;9.45;1.52;;;;;;;;;;5027878;28;20090;-74
2023/03/15 01:19:17;;;;;;;8.38;2.05;;;;;;;;;;5028238;28;20026;-74
2023/03/15 01:21:46;;;;;;;13.10;2.22;;;;;;;;;;5026389;28;20136;-74
2023/03/15 01:24:13;;;;;;;15.63;2.63;;;;;;;;;;5027915;28;20562;-74
2023/03/15 01:26:39;;;;;;;12.82;2.53;;;;;;;;;;5027626;28;20033;-74
2023/03/15 01:29:06;;;;;;;10.02;2.17;;;;;;;;;;5028108;28;20462;-74
2023/03/15 01:31:32;;;;;;;10.43;2.58;;;;;;;;;;5027993;28;20116;-74
2023/03/15 01:33:59;;;;;;;16.77;2.35;;;;;;;;;;5026134;28;20061;-74
2023/03/15 01:36:26;;;;;;;13.32;2.60;;;;;;;;;;5026695;28;20073;-74
2023/03/15 01:38:53;;;;;;;15.40;2.70;;;;;;;;;;5027386;28;20566;-74
2023/03/15 01:41:20;;;;;;;16.42;2.65;;;;;;;;;;5027839;28;20540;-74
2023/03/15 01:43:46;;;;;;;18.80;3.10;;;;;;;;;;5026221;28;20109;-74
2023/03/15 01:46:24;;;;;;;13.00;2.47;;;;;;;;;;5027373;28;20462;-74
2023/03/15 01:49:05;;;;;;;15.77;3.00;;;;;;;;;;5027407;28;20455;-74
2023/03/15 01:51:50;;;;;;;17.15;2.72;;;;;;;;;;5026666;28;20040;-74
2023/03/15 01:54:16;;;;;;;15.43;2.80;;;;;;;;;;5027376;28;20045;-74
2023/03/15 01:56:46;;;;;;;10.43;2.50;;;;;;;;;;5025857;28;20035;-74
2023/03/15 01:59:16;;;;;;;17.08;3.67;;;;;;;;;;5027095;28;20028;-74
2023/03/15 02:01:44;;;;;;;13.27;2.55;;;;;;;;;;5026696;28;20116;-74
2023/03/15 02:04:12;;;;;;;12.95;2.47;;;;;;;;;;5026457;28;20549;-74
2023/03/15 02:06:39;;;;;;;11.15;2.63;;;;;;;;;;5027156;28;20500;-74
2023/03/15 02:09:08;;;;;;;12.90;4.10;;;;;;;;;;5027004;28;20032;-74
2023/03/15 02:11:35;;;;;;;10.13;2.40;;;;;;;;;;5025637;28;20025;-73
2023/03/15 02:14:02;;;;;;;15.93;2.92;;;;;;;;;;5026920;28;20025;-74
2023/03/15 02:16:29;;;;;;;13.60;3.45;;;;;;;;;;5026918;28;20025;-73
2023/03/15 02:18:55;;;;;;;11.57;2.60;;;;;;;;;;5023200;28;20021;-74
2023/03/15 02:21:30;;;;;;;15.52;3.58;;;;;;;;;;5022716;28;20198;-75
2023/03/15 02:24:12;;;;;;;12.60;3.55;;;;;;;;;;5024173;28;20072;-74
2023/03/15 02:26:44;;;;;;;17.13;3.50;;;;;;;;;;5023976;28;20773;-74
2023/03/15 02:29:10;;;;;;;;;;;;;;;;;;5024889;28;20662;-74
2023/03/15 02:31:36;;;;;;;18.95;3.30;;;;;;;;;;5022748;28;19949;-76
2023/03/15 02:34:03;;;;;;;17.02;3.13;;;;;;;;;;5024404;28;20045;-74
2023/03/15 02:36:33;;;;;;;15.15;2.58;;;;;;;;;;5023836;28;20205;-74
2023/03/15 02:38:59;;;;;;;17.33;3.20;;;;;;;;;;5022962;28;20030;-76
2023/03/15 02:41:34;;;;;;;15.60;3.00;;;;;;;;;;5023710;28;20084;-74
2023/03/15 02:44:20;;;;;;;16.40;2.83;;;;;;;;;;5024516;28;20116;-74
2023/03/15 02:46:49;;;;;;;21.02;3.92;;;;;;;;;;5024003;28;20382;-74
2023/03/15 02:49:16;;;;;;;18.77;3.55;;;;;;;;;;5024197;28;20548;-74
2023/03/15 02:51:42;;;;;;;17.00;3.05;;;;;;;;;;5022305;28;20104;-74
2023/03/15 02:54:08;;;;;;;21.20;3.97;;;;;;;;;;5024069;28;20032;-74
2023/03/15 02:56:34;;;;;;;20.13;3.42;;;;;;;;;;5024040;28;20022;-73
2023/03/15 02:59:01;;;;;;;21.98;3.83;;;;;;;;;;5023959;28;20033;-74
2023/03/15 03:01:27;;;;;;;18.65;3.85;;;;;;;;;;5019488;28;20592;-73
2023/03/15 03:03:53;;;;;;;17.13;3.75;;;;;;;;;;5022635;28;20104;-74
2023/03/15 03:06:19;;;;;;;21.55;3.78;;;;;;;;;;5027665;28;20025;-74
2023/03/15 03:08:45;;;;;;;16.88;3.85;;;;;;;;;;5025937;28;20036;-74
2023/03/15 03:11:13;;;;;;;21.52;3.60;;;;;;;;;;5012604;28;20683;-74
2023/03/15 03:13:39;;;;;;;18.38;3.78;;;;;;;;;;5011095;28;20037;-74
2023/03/15 03:16:06;;;;;;;17.17;3.00;;;;;;;;;;5027160;28;20025;-74
2023/03/15 03:18:35;;;;;;;18.17;2.97;;;;;;;;;;4996837;28;20040;-73
2023/03/15 03:21:02;;;;;;;19.58;4.47;;;;;;;;;;5018709;28;20108;-74
2023/03/15 03:23:29;;;;;;;18.40;3.53;;;;;;;;;;5015636;28;20539;-74
2023/03/15 03:25:56;;;;;;;21.98;3.17;;;;;;;;;;5024423;28;20089;-74
2023/03/15 03:28:26;;;;;;;21.20;3.78;;;;;;;;;;5023460;28;20029;-73
2023/03/15 03:30:53;;;;;;;17.70;3.28;;;;;;;;;;5027655;28;20117;-73
2023/03/15 03:33:20;;;;;;;20.10;3.63;;;;;;;;;;5027602;28;20056;-74
2023/03/15 03:35:46;;;;;;;18.98;3.75;;;;;;;;;;5027902;28;20179;-74
2023/03/15 03:38:13;;;;;;;21.63;3.92;;;;;;;;;;5023794;28;20157;-74
2023/03/15 03:40:39;;;;;;;17.48;3.95;;;;;;;;;;5025809;28;20409;-73
2023/03/15 03:43:06;;;;;;;17.92;3.83;;;;;;;;;;5027285;28;20108;-73
2023/03/15 03:45:32;;;;;;;19.33;3.45;;;;;;;;;;5027137;28;20045;-74
2023/03/15 03:47:58;;;;;;;15.38;2.90;;;;;;;;;;5027330;28;20156;-74
2023/03/15 03:50:25;;;;;;;22.25;3.40;;;;;;;;;;5026917;28;20537;-74
2023/03/15 03:52:51;;;;;;;18.30;3.50;;;;;;;;;;5025497;28;20830;-74
2023/03/15 03:55:17;;;;;;;17.73;3.10;;;;;;;;;;5027098;28;20108;-74
2023/03/15 03:57:43;;;;;;;16.10;3.38;;;;;;;;;;5026838;28;20493;-74
2023/03/15 04:00:13;;;;;;;15.75;3.42;;;;;;;;;;5026904;28;20025;-74
2023/03/15 04:02:41;;;;;;;22.17;3.17;;;;;;;;;;5017207;28;20041;-74
2023/03/15 04:05:08;;;;;;;17.58;3.10;;;;;;;;;;5026895;28;20122;-74
2023/03/15 04:07:34;;;;;;;19.48;4.07;;;;;;;;;;5026602;28;20239;-73
2023/03/15 04:10:01;;;;;;;21.27;3.67;;;;;;;;;;5026756;28;20029;-73
2023/03/15 04:12:27;;;;;;;14.70;2.83;;;;;;;;;;5025661;28;20219;-73
2023/03/15 04:14:53;;;;;;;21.77;2.83;;;;;;;;;;5024905;28;20115;-73
2023/03/15 04:17:20;;;;;;;25.08;3.30;;;;;;;;;;5016057;28;20103;-74
2023/03/15 04:19:46;;;;;;;22.02;4.18;;;;;;;;;;5020390;28;20112;-73
2023/03/15 04:22:14;;;;;;;24.45;3.10;;;;;;;;;;5023461;28;20037;-73
2023/03/15 04:24:43;;;;;;;22.52;3.78;;;;;;;;;;5022330;28;20074;-73
2023/03/15 04:27:13;;;;;;;17.15;2.75;;;;;;;;;;5015164;28;20116;-73
2023/03/15 04:29:40;;;;;;;16.65;4.07;;;;;;;;;;5017845;28;20033;-73
2023/03/15 04:32:07;;;;;;;17.60;3.30;;;;;;;;;;5019066;28;20362;-73
2023/03/15 04:34:37;;;;;;;19.13;3.42;;;;;;;;;;5012711;28;20049;-73
2023/03/15 04:37:04;;;;;;;22.98;4.05;;;;;;;;;;5021377;28;20028;-74
2023/03/15 04:39:30;;;;;;;23.85;4.43;;;;;;;;;;5016897;28;20103;-74
2023/03/15 04:41:56;;;;;;;19.55;5.55;;;;;;;;;;5024464;28;20040;-73
2023/03/15 04:44:25;;;;;;;22.20;4.22;;;;;;;;;;5023760;28;20116;-73
2023/03/15 04:46:51;;;;;;;17.80;3.58;;;;;;;;;;5022238;28;20552;-73
2023/03/15 04:49:17;;;;;;;19.52;3.42;;;;;;;;;;5023547;28;20026;-73
2023/03/15 04:51:43;;;;;;;23.77;4.13;;;;;;;;;;5018626;28;20040;-74
2023/03/15 04:54:10;;;;;;;18.52;3.85;;;;;;;;;;5023372;28;20120;-74
2023/03/15 04:56:36;;;;;;;19.50;3.58;;;;;;;;;;5023515;28;20489;-73
2023/03/15 04:59:03;;;;;;;21.17;3.17;;;;;;;;;;5004000;28;20030;-73
2023/03/15 05:01:30;;;;;;;17.85;3.10;;;;;;;;;;5023981;28;20053;-74
2023/03/15 05:03:57;;;;;;;15.20;3.28;;;;;;;;;;5023495;28;20476;-73
2023/03/15 05:06:23;;;;;;;16.67;3.67;;;;;;;;;;5022967;28;20052;-74
2023/03/15 05:08:49;;;;;;;15.95;2.60;;;;;;;;;;5021702;28;20068;-74
2023/03/15 05:11:16;;;;;;;19.90;3.95;;;;;;;;;;5023257;28;20071;-73
2023/03/15 05:13:42;;;;;;;20.42;3.70;;;;;;;;;;5022626;28;20021;-73
2023/03/15 05:16:09;;;;;;;19.20;3.38;;;;;;;;;;5021443;28;20105;-73
2023/03/15 05:18:35;;;;;;;22.52;3.55;;;;;;;;;;5021545;28;20469;-73
2023/03/15 05:21:01;;;;;;;16.17;3.45;;;;;;;;;;5022943;28;20048;-73
2023/03/15 05:23:27;;;;;;;19.65;3.30;;;;;;;;;;5022950;28;20032;-73
2023/03/15 05:25:54;;;;;;;16.67;3.53;;;;;;;;;;5022954;28;20017;-73
2023/03/15 05:28:24;;;;;;;24.38;3.50;;;;;;;;;;5021080;28;20079;-73
2023/03/15 05:30:53;;;;;;;11.90;2.75;;;;;;;;;;5022932;28;20048;-73
2023/03/15 05:33:20;;;;;;;20.83;3.95;;;;;;;;;;5022781;28;20065;-73
2023/03/15 05:35:46;;;;;;;14.55;3.13;;;;;;;;;;5019919;28;20033;-73
2023/03/15 05:38:13;;;;;;;18.60;2.97;;;;;;;;;;5016839;28;20116;-74
2023/03/15 05:40:43;;;;;;;17.90;4.18;;;;;;;;;;5017173;28;20050;-73
2023/03/15 05:43:09;;;;;;;20.98;2.83;;;;;;;;;;5016326;28;20026;-73
2023/03/15 05:45:36;;;;;;;16.40;3.05;;;;;;;;;;5022439;28;20524;-73
2023/03/15 05:48:02;;;;;;;19.60;3.15;;;;;;;;;;5020762;28;20104;-74
2023/03/15 05:50:28;;;;;;;17.67;3.30;;;;;;;;;;5022417;28;20052;-73
2023/03/15 05:52:55;;;;;;;24.42;3.40;;;;;;;;;;5016465;28;20021;-73
2023/03/15 05:55:22;;;;;;;18.90;4.70;;;;;;;;;;5017911;28;20029;-74
2023/03/15 05:57:48;;;;;;;14.13;2.85;;;;;;;;;;5022074;28;20104;-74
2023/03/15 06:00:15;;;;;;;13.68;3.33;;;;;;;;;;5022196;28;20037;-74
2023/03/15 06:02:41;;;;;;;13.00;3.45;;;;;;;;;;5021221;28;20517;-74
2023/03/15 06:05:08;;;;;;;19.67;3.38;;;;;;;;;;5021735;28;20022;-73
2023/03/15 06:07:34;;;;;;;26.90;3.72;;;;;;;;;;5021870;28;20017;-74
2023/03/15 06:10:00;;;;;;;23.08;4.32;;;;;;;;;;5022007;28;20432;-74
2023/03/15 06:12:27;;;;;;;12.23;2.80;;;;;;;;;;5022116;28;20030;-73
2023/03/15 06:14:53;;;;;;;14.10;3.90;;;;;;;;;;5022016;28;20056;-73
2023/03/15 06:17:19;;;;;;;17.20;3.47;;;;;;;;;;5020554;28;20034;-73
2023/03/15 06:19:45;;;;;;;21.83;2.95;;;;;;;;;;5021940;28;20110;-73
2023/03/15 06:22:12;;;;;;;22.08;3.97;;;;;;;;;;5021504;28;20553;-74
2023/03/15 06:24:38;;;;;;;19.25;3.63;;;;;;;;;;5021529;28;20053;-74
2023/03/15 06:27:04;;;;;;;21.92;3.83;;;;;;;;;;5021729;28;20539;-73
2023/03/15 06:29:31;;;;;;;20.52;3.35;;;;;;;;;;5014182;28;20022;-73
2023/03/15 06:31:57;;;;;;;18.58;3.85;;;;;;;;;;5020799;28;20109;-74
2023/03/15 06:34:23;;;;;;;28.65;3.55;;;;;;;;;;5021676;28;20592;-74
2023/03/15 06:36:51;;;;;;;20.42;3.00;;;;;;;;;;5021408;28;20053;-73
2023/03/15 06:39:17;;;;;;;15.18;3.22;;;;;;;;;;5019946;28;20632;-74
2023/03/15 06:41:44;;;;;;;19.98;3.88;;;;;;;;;;5020969;28;20128;-73
2023/03/15 06:44:10;;;;;;;18.88;3.13;;;;;;;;;;5006598;28;20474;-74
2023/03/15 06:46:37;;;;;;;19.75;4.57;;;;;;;;;;5009098;28;20465;-76
2023/03/15 06:49:03;;;;;;;14.52;3.80;;;;;;;;;;5020972;28;20026;-73
2023/03/15 06:51:30;;;;;;;14.10;3.05;;;;;;;;;;5019758;28;20069;-73
2023/03/15 06:53:56;;;;;;;12.60;3.63;;;;;;;;;;5021492;28;20026;-74
2023/03/15 06:56:22;;;;;;;29.75;8.15;;;;;;;;;;5003742;28;20029;-74
2023/03/15 06:58:48;;;;;;;21.42;4.07;;;;;;;;;;5003606;28;20582;-74
2023/03/15 07:01:15;;;;;;;18.40;4.22;;;;;;;;;;5021522;28;20030;-74
2023/03/15 07:03:41;;;;;;;17.92;4.25;;;;;;;;;;5019996;28;20500;-74
2023/03/15 07:06:08;;;;;;;24.70;6.03;;;;;;;;;;5021122;28;20113;-74
2023/03/15 07:08:34;;;;;;;17.63;4.10;;;;;;;;;;5016022;28;20026;-77
2023/03/15 07:11:02;;;;;;;24.75;5.35;;;;;;;;;;4999249;28;20029;-75
2023/03/15 07:13:28;;;;;;;16.10;3.72;;;;;;;;;;5008411;28;20009;-77
2023/03/15 07:15:55;;;;;;;16.33;3.75;;;;;;;;;;4994720;28;20108;-76
2023/03/15 07:18:22;;;;;;;26.45;5.25;;;;;;;;;;5012369;28;20033;-77
2023/03/15 07:20:55;;;;;;;21.92;4.82;;;;;;;;;;5020337;28;20033;-77
2023/03/15 07:23:21;;;;;;;15.70;4.22;;;;;;;;;;5020656;28;20526;-76
2023/03/15 07:25:48;;;;;;;11.13;2.28;;;;;;;;;;5019554;28;20040;-76
2023/03/15 07:28:14;;;;;;;13.18;2.80;;;;;;;;;;5012211;28;20440;-77
2023/03/15 07:30:40;;;;;;;30.92;3.15;;;;;;;;;;4999036;28;20064;-76
2023/03/15 07:33:06;;;;;;;15.68;3.17;;;;;;;;;;5020530;28;20029;-77
2023/03/15 07:35:32;;;;;;;11.80;2.42;;;;;;;;;;5020267;28;20105;-76
2023/03/15 07:37:59;;;;;;;12.05;2.65;;;;;;;;;;5009904;28;20026;-73
2023/03/15 07:40:25;;;;;;;15.77;3.35;;;;;;;;;;5000093;28;20589;-78
2023/03/15 07:42:54;;;;;;;15.88;2.55;;;;;;;;;;5001818;28;20096;-80
2023/03/15 07:45:21;;;;;;;22.38;4.63;;;;;;;;;;5012705;28;20112;-78
2023/03/15 07:47:47;;;;;;;15.27;3.20;;;;;;;;;;4991066;28;20421;-79
2023/03/15 07:50:14;;;;;;;22.83;4.90;;;;;;;;;;4993410;28;20022;-79
2023/03/15 07:52:40;;;;;;;17.95;3.35;;;;;;;;;;5019060;28;20603;-80
2023/03/15 07:55:07;;;;;;;18.30;3.63;;;;;;;;;;5015154;28;20034;-79
2023/03/15 07:57:33;;;;;;;15.80;3.22;;;;;;;;;;5022305;28;20033;-80
2023/03/15 08:00:00;;;;;;;18.17;5.45;;;;;;;;;;5021490;28;20371;-79
2023/03/15 08:02:26;;;;;;;15.65;3.50;;;;;;;;;;5023010;28;20109;-78
2023/03/15 08:04:52;;;;;;;19.55;3.85;;;;;;;;;;5022601;28;20096;-78
2023/03/15 08:07:19;;;;;;;20.17;4.07;;;;;;;;;;5020582;28;20026;-80
2023/03/15 08:09:45;;;;;;;16.30;3.08;;;;;;;;;;5020298;28;20033;-80
2023/03/15 08:12:11;;;;;;;19.60;3.28;;;;;;;;;;5008255;28;20060;-80
2023/03/15 08:14:38;;;;;;;19.00;3.35;;;;;;;;;;5002813;28;20022;-80
2023/03/15 08:17:04;;;;;;;9.55;3.35;;;;;;;;;;5018990;28;20068;-80
2023/03/15 08:19:32;;;;;;;15.82;3.20;;;;;;;;;;5008135;28;20101;-78
2023/03/15 08:21:59;;;;;;;13.52;3.90;;;;;;;;;;5023988;28;20033;-80
2023/03/15 08:24:25;;;;;;;14.40;3.22;;;;;;;;;;5001611;28;20426;-79
2023/03/15 08:26:52;;;;;;;14.35;3.17;;;;;;;;;;5009601;28;20025;-79
2023/03/15 08:29:18;;;;;;;14.48;2.95;;;;;;;;;;5004379;28;20128;-81
2023/03/15 08:31:44;;;;;;;22.95;3.83;;;;;;;;;;4990886;28;20120;-79
2023/03/15 08:34:11;;;;;;;13.70;2.47;;;;;;;;;;4997187;28;20633;-80
2023/03/15 08:36:37;;;;;;;16.85;3.05;;;;;;;;;;4998992;28;20057;-80
2023/03/15 08:39:06;;;;;;;16.27;2.95;;;;;;;;;;4985865;28;20113;-79
2023/03/15 08:41:32;;;;;;;12.00;2.50;;;;;;;;;;5004031;28;20141;-80
2023/03/15 08:44:01;;;;;;;16.98;3.78;;;;;;;;;;4991665;28;20465;-81
2023/03/15 08:46:32;;;;;;;21.13;3.40;;;;;;;;;;5005358;28;20033;-81
2023/03/15 08:48:59;;;;;;;17.60;2.80;;;;;;;;;;5005665;28;20354;-80
2023/03/15 08:51:29;;;;;;;18.23;2.78;;;;;;;;;;5005656;28;20087;-80
2023/03/15 08:54:06;;;;;;;14.15;3.08;;;;;;;;;;5004554;28;20025;-81
2023/03/15 08:56:38;;;;;;;16.63;2.83;;;;;;;;;;5006049;28;20473;-80
2023/03/15 08:59:06;;;;;;;16.70;3.10;;;;;;;;;;5023614;28;20029;-80
2023/03/15 09:01:43;;;;;;;19.50;3.95;;;;;;;;;;5005451;28;20033;-80
2023/03/15 09:04:10;;;;;;;17.92;2.83;;;;;;;;;;5022987;28;20021;-79
2023/03/15 09:06:44;;;;;;;12.00;2.67;;;;;;;;;;5004706;28;20021;-80
2023/03/15 09:09:28;;;;;;;24.55;4.25;;;;;;;;;;5005475;28;20029;-81
2023/03/15 09:11:57;;;;;;;11.13;2.75;;;;;;;;;;5005175;28;20108;-80
2023/03/15 09:14:32;;;;;;;15.70;3.22;;;;;;;;;;5004812;28;20452;-80
2023/03/15 09:17:04;;;;;;;22.40;3.55;;;;;;;;;;5021521;28;20111;-81
2023/03/15 09:19:31;;;;;;;16.60;3.38;;;;;;;;;;4995084;28;20033;-79
2023/03/15 09:22:06;;;;;;;22.17;3.45;;;;;;;;;;5004997;28;20041;-80
2023/03/15 09:24:33;;;;;;;19.00;4.70;;;;;;;;;;4999660;28;20478;-80
2023/03/15 09:26:59;;;;;;;18.80;3.42;;;;;;;;;;5013839;28;20030;-80
2023/03/15 09:29:25;;;;;;;17.70;3.40;;;;;;;;;;5013607;28;20112;-79
2023/03/15 09:31:51;;;;;;;21.55;3.45;;;;;;;;;;5013216;28;20036;-80
2023/03/15 09:34:17;;;;;;;18.33;2.92;;;;;;;;;;4990378;28;20107;-80
2023/03/15 09:36:44;;;;;;;19.67;4.25;;;;;;;;;;4997311;28;20039;-81
2023/03/15 09:39:10;;;;;;;12.63;2.60;;;;;;;;;;5016072;28;20200;-81
2023/03/15 09:41:47;;;;;;;11.20;2.72;;;;;;;;;;5009854;28;20056;-80
2023/03/15 09:44:21;;;;;;;9.60;2.45;;;;;;;;;;5001205;28;20458;-81
2023/03/15 09:47:00;;;;;;;16.45;4.63;;;;;;;;;;4993914;28;20505;-79
2023/03/15 09:49:47;;;;;;;14.30;2.72;;;;;;;;;;4994857;28;20410;-80
2023/03/15 09:52:21;;;;;;;18.75;3.15;;;;;;;;;;4999989;28;20076;-80
2023/03/15 09:54:47;;;;;;;14.02;3.00;;;;;;;;;;5015185;28;20032;-80
2023/03/15 09:57:25;;;;;;;14.27;3.33;;;;;;;;;;4998271;28;20025;-79
2023/03/15 10:00:21;;;;;;;11.38;2.78;;;;;;;;;;5015414;28;20018;-81
2023/03/15 10:03:08;;;;;;;12.40;2.38;;;;;;;;;;4989451;28;20128;-80
2023/03/15 10:05:42;;;;;;;16.33;2.70;;;;;;;;;;5015880;28;20132;-80
2023/03/15 10:08:18;;;;;;;17.90;3.53;;;;;;;;;;5006100;28;20394;-80
2023/03/15 10:10:49;;;;;;;12.05;2.80;;;;;;;;;;5009190;28;20051;-81
2023/03/15 10:13:26;;;;;;;22.25;3.97;;;;;;;;;;4994960;28;20025;-79
2023/03/15 10:16:00;;;;;;;19.40;3.90;;;;;;;;;;4996213;28;20041;-79
2023/03/15 10:18:36;;;;;;;14.88;4.05;;;;;;;;;;5016353;28;20676;-80
2023/03/15 10:21:10;;;;;;;18.13;3.70;;;;;;;;;;5016007;28;20486;-79
2023/03/15 10:23:55;;;;;;;14.55;2.83;;;;;;;;;;4995629;28;20060;-80
2023/03/15 10:26:23;;;;;;;20.05;3.45;;;;;;;;;;4992914;28;20017;-80
2023/03/15 10:28:51;;;;;;;21.70;3.20;;;;;;;;;;4996795;28;20544;-80
2023/03/15 10:31:19;;;;;;;19.77;4.65;;;;;;;;;;4996874;28;20107;-79
2023/03/15 10:33:49;;;;;;;20.65;2.88;;;;;;;;;;5013811;28;20025;-80
2023/03/15 10:36:17;;;;;;;16.33;3.85;;;;;;;;;;4996655;28;20074;-81
2023/03/15 10:38:47;;;;;;;30.02;4.35;;;;;;;;;;5015459;28;20093;-79
2023/03/15 10:41:14;;;;;;;18.63;3.80;;;;;;;;;;5014635;28;20095;-80
2023/03/15 10:43:55;;;;;;;24.35;4.05;;;;;;;;;;5016615;28;20057;-80
2023/03/15 10:46:27;;;;;;;16.98;4.20;;;;;;;;;;4999166;28;20641;-80
2023/03/15 10:49:22;;;;;;;17.33;3.20;;;;;;;;;;5007351;28;20030;-80
2023/03/15 10:51:51;;;;;;;23.75;3.72;;;;;;;;;;4993986;28;20043;-81
2023/03/15 10:54:22;;;;;;;23.02;3.67;;;;;;;;;;5014604;28;20029;-80
2023/03/15 10:57:08;;;;;;;23.70;4.00;;;;;;;;;;5006941;28;20022;-80
2023/03/15 10:59:39;;;;;;;16.13;2.85;;;;;;;;;;5013537;28;20385;-82
2023/03/15 11:02:11;;;;;;;22.40;3.72;;;;;;;;;;4997434;28;20381;-79
2023/03/15 11:04:41;;;;;;;14.10;3.47;;;;;;;;;;5015347;28;20409;-80
2023/03/15 11:07:07;;;;;;;20.92;3.63;;;;;;;;;;4993605;28;20028;-80
2023/03/15 11:09:38;;;;;;;21.23;4.55;;;;;;;;;;5017438;28;20091;-79
2023/03/15 11:12:06;;;;;;;22.13;4.03;;;;;;;;;;4996592;28;20448;-79
2023/03/15 11:14:40;;;;;;;22.35;4.07;;;;;;;;;;4995577;28;20164;-79
2023/03/15 11:17:07;;;;;;;18.45;3.40;;;;;;;;;;4991534;28;20026;-80
2023/03/15 11:19:38;;;;;;;19.52;4.28;;;;;;;;;;5016259;28;20049;-81
2023/03/15 11:22:04;;;;;;;26.00;4.93;;;;;;;;;;4996300;28;20038;-79
2023/03/15 11:24:31;;;;;;;18.45;4.28;;;;;;;;;;5000020;28;20090;-79
2023/03/15 11:27:01;;;;;;;20.15;4.32;;;;;;;;;;5013979;28;20028;-81
2023/03/15 11:29:27;;;;;;;24.15;5.07;;;;;;;;;;5001689;28;20025;-81
2023/03/15 11:31:54;;;;;;;16.85;3.70;;;;;;;;;;5003181;28;20022;-79
2023/03/15 11:34:20;;;;;;;18.38;4.00;;;;;;;;;;5015485;28;20021;-80
2023/03/15 11:36:50;;;;;;;20.15;3.75;;;;;;;;;;4998654;28;20041;-81
2023/03/15 11:39:24;;;;;;;22.33;3.80;;;;;;;;;;4999960;28;20509;-80
2023/03/15 11:41:59;;;;;;;19.85;4.05;;;;;;;;;;5016980;28;20127;-80
2023/03/15 11:44:32;;;;;;;17.88;3.72;;;;;;;;;;5005247;28;20048;-79
2023/03/15 11:47:06;;;;;;;22.83;4.32;;;;;;;;;;4999584;28;20589;-79
2023/03/15 11:49:58;;;;;;;18.10;3.40;;;;;;;;;;4995056;28;20032;-80
2023/03/15 11:52:26;;;;;;;17.52;3.22;;;;;;;;;;4993635;28;20033;-78
2023/03/15 11:54:56;;;;;;;20.52;3.78;;;;;;;;;;4994906;28;20034;-78
2023/03/15 11:57:31;;;;;;;19.90;5.20;;;;;;;;;;5021338;28;20029;-80
2023/03/15 12:00:16;;;;;;;18.40;3.88;;;;;;;;;;5019739;28;20033;-80
2023/03/15 12:02:49;;;;;;;15.05;3.30;;;;;;;;;;5015114;28;20608;-79
2023/03/15 12:05:33;;;;;;;19.75;3.55;;;;;;;;;;5018106;28;20371;-80
2023/03/15 12:08:15;;;;;;;22.90;4.05;;;;;;;;;;4998005;28;20026;-80
2023/03/15 12:10:46;;;;;;;27.30;4.72;;;;;;;;;;4999830;28;20027;-80
2023/03/15 12:13:38;;;;;;;17.17;3.50;;;;;;;;;;5000269;28;20366;-80
2023/03/15 12:16:11;;;;;;;21.30;4.15;;;;;;;;;;4991014;28;20565;-80
2023/03/15 12:18:45;;;;;;;28.55;3.85;;;;;;;;;;5000426;28;20583;-79
2023/03/15 12:21:17;;;;;;;23.58;4.70;;;;;;;;;;4998556;28;20261;-78
2023/03/15 12:23:47;;;;;;;18.95;4.32;;;;;;;;;;5018258;28;20028;-80
2023/03/15 12:26:24;;;;;;;26.98;3.63;;;;;;;;;;5013983;28;20068;-79
2023/03/15 12:29:13;;;;;;;26.27;3.95;;;;;;;;;;5002557;28;20034;-79
2023/03/15 12:31:44;;;;;;;23.48;4.68;;;;;;;;;;4984873;28;20045;-78
2023/03/15 12:34:23;;;;;;;22.27;3.58;;;;;;;;;;4998841;28;20041;-79
2023/03/15 12:36:51;;;;;;;20.30;3.95;;;;;;;;;;5014648;28;20069;-80
2023/03/15 12:39:18;;;;;;;17.50;3.35;;;;;;;;;;4995552;28;20398;-80
2023/03/15 12:41:45;;;;;;;20.05;3.90;;;;;;;;;;4997367;28;20518;-80
2023/03/15 12:44:25;;;;;;;26.92;5.38;;;;;;;;;;4993047;28;20022;-80
2023/03/15 12:46:51;;;;;;;19.65;3.45;;;;;;;;;;4993790;28;20033;-80
2023/03/15 12:49:24;;;;;;;27.75;4.70;;;;;;;;;;4996133;28;20145;-79
2023/03/15 12:52:01;;;;;;;18.20;4.60;;;;;;;;;;5000032;28;20022;-80
2023/03/15 12:54:34;;;;;;;25.17;4.18;;;;;;;;;;4992730;28;20021;-80
2023/03/15 12:57:02;;;;;;;15.02;3.42;;;;;;;;;;4997215;28;20029;-80
2023/03/15 12:59:30;;;;;;;23.80;4.25;;;;;;;;;;4994080;28;20018;-80
2023/03/15 13:01:58;;;;;;;17.10;4.22;;;;;;;;;;4998388;28;20036;-80
2023/03/15 13:04:27;;;;;;;22.88;4.07;;;;;;;;;;4994310;28;20079;-79
2023/03/15 13:06:54;;;;;;;18.55;4.20;;;;;;;;;;4995605;28;20033;-80
2023/03/15 13:09:20;;;;;;;19.38;4.38;;;;;;;;;;4998725;28;20119;-79
2023/03/15 13:11:56;;;;;;;18.15;3.75;;;;;;;;;;4993352;28;20056;-80
2023/03/15 13:14:48;;;;;;;22.63;3.47;;;;;;;;;;4999922;28;20022;-80
2023/03/15 13:17:22;;;;;;;22.35;3.70;;;;;;;;;;4992534;28;20308;-80
2023/03/15 13:19:54;;;;;;;23.85;4.13;;;;;;;;;;4995371;28;20108;-80
2023/03/15 13:22:26;;;;;;;25.38;4.25;;;;;;;;;;4996703;28;20042;-79
2023/03/15 13:24:58;;;;;;;25.85;3.75;;;;;;;;;;4989461;28;20026;-79
2023/03/15 13:27:24;;;;;;;;;;;;;;;;;;4993607;28;20120;-80
2023/03/15 13:29:50;;;;;;;18.05;3.13;;;;;;;;;;4999020;28;20500;-81
2023/03/15 13:32:18;;;;;;;24.20;4.13;;;;;;;;;;4998829;28;20643;-80
2023/03/15 13:34:46;;;;;;;19.10;4.22;;;;;;;;;;4992687;28;20037;-80
2023/03/15 13:37:30;;;;;;;21.73;4.90;;;;;;;;;;4995170;28;20390;-79
2023/03/15 13:40:01;;;;;;;22.15;4.32;;;;;;;;;;4992986;28;20092;-84
2023/03/15 13:42:28;;;;;;;18.58;3.65;;;;;;;;;;4998196;28;20034;-82
2023/03/15 13:45:03;;;;;;;20.40;3.85;;;;;;;;;;4998035;28;20026;-82
2023/03/15 13:47:29;;;;;;;23.40;4.60;;;;;;;;;;4998881;28;20037;-82
2023/03/15 13:49:56;;;;;;;18.33;3.55;;;;;;;;;;4995322;28;20022;-79
2023/03/15 13:52:22;;;;;;;20.95;4.47;;;;;;;;;;5011230;28;20863;-81
2023/03/15 13:54:49;;;;;;;18.50;3.47;;;;;;;;;;4992365;28;20908;-82
2023/03/15 13:57:16;;;;;;;14.85;3.63;;;;;;;;;;5000905;28;20021;-82
2023/03/15 13:59:48;;;;;;;19.25;3.10;;;;;;;;;;5002648;28;20057;-82
2023/03/15 14:02:14;;;;;;;;;;;;;;;;;;5002005;28;20096;-81
2023/03/15 14:04:40;;;;;;;19.23;3.20;;;;;;;;;;5001168;28;20400;-82
2023/03/15 14:07:12;;;;;;;24.30;4.05;;;;;;;;;;4988268;28;20022;-82
2023/03/15 14:09:38;;;;;;;24.02;3.97;;;;;;;;;;4999852;28;20481;-81
2023/03/15 14:12:06;;;;;;;21.38;4.75;;;;;;;;;;4988000;28;20034;-82
2023/03/15 14:14:35;;;;;;;25.17;4.72;;;;;;;;;;4997289;28;20021;-82
2023/03/15 14:17:07;;;;;;;22.83;3.55;;;;;;;;;;4996853;28;20025;-83
2023/03/15 14:19:34;;;;;;;19.35;3.88;;;;;;;;;;4976997;28;20079;-82
2023/03/15 14:22:02;;;;;;;24.45;4.00;;;;;;;;;;4995008;28;20041;-81
2023/03/15 14:24:40;;;;;;;20.70;4.63;;;;;;;;;;4996098;28;20109;-80
2023/03/15 14:27:17;;;;;;;12.52;3.05;;;;;;;;;;4992406;28;20092;-82
2023/03/15 14:29:50;;;;;;;22.35;3.38;;;;;;;;;;4990486;28;20109;-83
2023/03/15 14:32:26;;;;;;;13.73;3.20;;;;;;;;;;4996557;28;20021;-81
2023/03/15 14:34:58;;;;;;;14.20;2.95;;;;;;;;;;4995181;28;20030;-83
2023/03/15 14:37:27;;;;;;;21.88;3.72;;;;;;;;;;4996357;28;20042;-82
2023/03/15 14:40:03;;;;;;;17.55;3.58;;;;;;;;;;5003685;28;20095;-82
2023/03/15 14:42:29;;;;;;;16.55;3.35;;;;;;;;;;5012842;28;20124;-82